Time;durP1;ratioP1;P1;durP2;ratioP2;P2;SDS_P1;SDS_P2;PMS_P1;PMS_P2;Temp;Humidity;BMP_temperature;BMP_pressure;BME280_temperature;BME280_humidity;BME280_pressure;Samples;Min_cycle;Max_cycle;Signal;HPM_P1;HPM_P2
2023/04/09 00:01:12;;;;;;;40.8;23.6;;;;;;;4.7;85.7;99310;;;;
2023/04/09 00:11:12;;;;;;;40.8;23.6;;;;;;;4.7;85.7;99310;;;;
2023/04/09 00:21:12;;;;;;;37.9;22;;;;;;;4.8;85.9;99320;;;;
2023/04/09 00:32:12;;;;;;;37.9;22;;;;;;;4.9;85.9;99320;;;;
2023/04/09 00:42:12;;;;;;;37.9;22;;;;;;;5;85.9;99320;;;;
2023/04/09 00:52:12;;;;;;;40;24.4;;;;;;;5;85.6;99320;;;;
2023/04/09 01:03:12;;;;;;;40;24.4;;;;;;;4.9;85.5;99310;;;;
2023/04/09 01:13:12;;;;;;;40;24.4;;;;;;;4.9;85.7;99310;;;;
2023/04/09 01:24:12;;;;;;;41.1;23.3;;;;;;;4.8;85.5;99300;;;;
2023/04/09 01:34:12;;;;;;;41.1;23.3;;;;;;;4.7;85.2;99310;;;;
2023/04/09 01:45:12;;;;;;;37.6;23.1;;;;;;;4.6;85.1;99310;;;;
2023/04/09 01:56:12;;;;;;;37.6;23.1;;;;;;;4.5;85.1;99310;;;;
2023/04/09 02:06:12;;;;;;;37.6;23.1;;;;;;;4.5;85.2;99310;;;;
2023/04/09 02:16:12;;;;;;;40.2;23.3;;;;;;;4.4;85.3;99320;;;;
2023/04/09 02:26:12;;;;;;;40.2;23.3;;;;;;;4.3;85.5;99320;;;;
2023/04/09 02:36:12;;;;;;;40.2;23.3;;;;;;;4.4;85.6;99320;;;;
2023/04/09 02:47:12;;;;;;;38.7;22.7;;;;;;;4.3;85.7;99320;;;;
2023/04/09 02:58:12;;;;;;;38.7;22.7;;;;;;;4.3;85.6;99310;;;;
2023/04/09 03:08:12;;;;;;;38.7;22.7;;;;;;;4.3;85.7;99310;;;;
2023/04/09 03:18:12;;;;;;;39.8;23.7;;;;;;;4.4;85.7;99320;;;;
2023/04/09 03:29:12;;;;;;;39.8;23.7;;;;;;;4.4;86.2;99320;;;;
2023/04/09 03:39:12;;;;;;;39.8;23.7;;;;;;;4.5;86.5;99310;;;;
2023/04/09 03:50:12;;;;;;;39.6;25.6;;;;;;;4.6;86.7;99320;;;;
2023/04/09 04:00:12;;;;;;;39.6;25.6;;;;;;;4.6;86.8;99310;;;;
2023/04/09 04:11:12;;;;;;;39.6;25.6;;;;;;;4.7;87.3;99320;;;;
2023/04/09 04:21:12;;;;;;;40.2;25.7;;;;;;;4.9;87.3;99330;;;;
2023/04/09 04:31:12;;;;;;;40.2;25.7;;;;;;;5.1;87.3;99330;;;;
2023/04/09 04:41:12;;;;;;;40.2;25.7;;;;;;;5.2;87.2;99340;;;;
2023/04/09 04:52:12;;;;;;;46.4;25.4;;;;;;;5.4;87;99340;;;;
2023/04/09 05:03:12;;;;;;;46.4;25.4;;;;;;;5.6;86.6;99340;;;;
2023/04/09 05:13:12;;;;;;;50.1;29.9;;;;;;;5.7;86.1;99350;;;;
2023/04/09 05:24:12;;;;;;;50.1;29.9;;;;;;;5.9;85.8;99350;;;;
2023/04/09 05:35:12;;;;;;;50.1;29.9;;;;;;;6;85.1;99350;;;;
2023/04/09 05:45:12;;;;;;;47.3;28.4;;;;;;;6.1;84.6;99360;;;;
2023/04/09 05:56:12;;;;;;;47.3;28.4;;;;;;;6.3;84.3;99370;;;;
2023/04/09 06:06:12;;;;;;;47.3;28.4;;;;;;;6.6;83.8;99370;;;;
2023/04/09 06:17:12;;;;;;;41.5;27.8;;;;;;;6.8;82.9;99380;;;;
2023/04/09 06:28:12;;;;;;;41.5;27.8;;;;;;;7.4;81.7;99380;;;;
2023/04/09 06:39:12;;;;;;;41.5;27.8;;;;;;;7.5;79.9;99380;;;;
2023/04/09 06:50:12;;;;;;;42.2;33.8;;;;;;;7.8;79.7;99390;;;;
2023/04/09 07:00:12;;;;;;;42.2;33.8;;;;;;;8.3;79.7;99400;;;;
2023/04/09 07:11:12;;;;;;;42.2;33.8;;;;;;;8.7;78.4;99400;;;;
2023/04/09 07:21:12;;;;;;;53.5;44.1;;;;;;;9.2;77;99410;;;;
2023/04/09 07:31:12;;;;;;;53.5;44.1;;;;;;;9.5;74.8;99400;;;;
2023/04/09 07:41:12;;;;;;;53.5;44.1;;;;;;;10;74.6;99410;;;;
2023/04/09 07:52:12;;;;;;;39.7;34.1;;;;;;;10.3;73.5;99400;;;;
2023/04/09 08:02:12;;;;;;;39.7;34.1;;;;;;;10.5;72.3;99410;;;;
2023/04/09 08:13:12;;;;;;;29.4;24.7;;;;;;;10.8;72.3;99400;;;;
2023/04/09 08:24:12;;;;;;;29.4;24.7;;;;;;;11.1;70.5;99390;;;;
2023/04/09 08:35:12;;;;;;;29.4;24.7;;;;;;;11.4;70.3;99400;;;;
2023/04/09 08:45:12;;;;;;;23.4;19.7;;;;;;;11.8;68.6;99400;;;;
2023/04/09 08:56:12;;;;;;;23.4;19.7;;;;;;;12;67.4;99400;;;;
2023/04/09 09:06:12;;;;;;;23.4;19.7;;;;;;;12.2;67.2;99400;;;;
2023/04/09 09:17:12;;;;;;;22.6;19.8;;;;;;;12.8;65.8;99400;;;;
2023/04/09 09:27:12;;;;;;;22.6;19.8;;;;;;;13.1;64.3;99390;;;;
2023/04/09 09:37:12;;;;;;;22.6;19.8;;;;;;;13.6;62.9;99390;;;;
2023/04/09 09:47:12;;;;;;;23.7;20.1;;;;;;;13.8;62.1;99390;;;;
2023/04/09 09:58:12;;;;;;;23.7;20.1;;;;;;;13.7;60.3;99390;;;;
2023/04/09 10:08:12;;;;;;;23.7;20.1;;;;;;;13.9;61.5;99380;;;;
2023/04/09 10:18:12;;;;;;;20.8;18.1;;;;;;;14.5;59.5;99380;;;;
2023/04/09 10:28:12;;;;;;;20.8;18.1;;;;;;;15.5;57.3;99360;;;;
2023/04/09 10:38:12;;;;;;;20.8;18.1;;;;;;;15.4;55.8;99360;;;;
2023/04/09 10:49:12;;;;;;;17.6;14.8;;;;;;;15.5;57.4;99350;;;;
2023/04/09 11:00:12;;;;;;;17.6;14.8;;;;;;;14.7;57.2;99350;;;;
2023/04/09 11:11:12;;;;;;;17.6;14.8;;;;;;;14.1;57.8;99350;;;;
2023/04/09 11:22:12;;;;;;;17.4;14.7;;;;;;;13.2;59;99350;;;;
2023/04/09 11:32:12;;;;;;;17.4;14.7;;;;;;;12.5;61.8;99360;;;;
2023/04/09 11:42:12;;;;;;;17.4;14.7;;;;;;;12.3;62.9;99360;;;;
2023/04/09 11:53:12;;;;;;;25.9;22;;;;;;;12.8;62.5;99350;;;;
2023/04/09 12:03:14;;;;;;;25.9;22;;;;;;;13.5;62.4;99360;;;;
2023/04/09 12:13:12;;;;;;;21.7;17.7;;;;;;;13.7;59.5;99360;;;;
2023/04/09 12:24:12;;;;;;;21.7;17.7;;;;;;;13.7;58.8;99360;;;;
2023/04/09 12:35:12;;;;;;;21.7;17.7;;;;;;;13.6;59.6;99360;;;;
2023/04/09 12:46:12;;;;;;;20.6;16;;;;;;;13.4;57.9;99350;;;;
2023/04/09 12:56:12;;;;;;;20.6;16;;;;;;;14.1;55.5;99350;;;;
2023/04/09 13:06:12;;;;;;;20.6;16;;;;;;;14.4;57;99340;;;;
2023/04/09 13:16:12;;;;;;;15.3;13.4;;;;;;;14.5;56.4;99340;;;;
2023/04/09 13:26:12;;;;;;;15.3;13.4;;;;;;;14.5;58.2;99340;;;;
2023/04/09 13:37:12;;;;;;;15.3;13.4;;;;;;;14.3;54.8;99330;;;;
2023/04/09 13:47:12;;;;;;;16.4;13.7;;;;;;;14;55.3;99340;;;;
2023/04/09 13:58:12;;;;;;;16.4;13.7;;;;;;;14.2;55.5;99340;;;;
2023/04/09 14:09:12;;;;;;;16.4;13.7;;;;;;;14.8;52.1;99330;;;;
2023/04/09 14:19:12;;;;;;;16.5;14.4;;;;;;;15.1;52.8;99320;;;;
2023/04/09 14:29:12;;;;;;;16.5;14.4;;;;;;;14.9;53.9;99320;;;;
2023/04/09 14:40:12;;;;;;;16.5;14.4;;;;;;;14.9;51.5;99310;;;;
2023/04/09 14:50:12;;;;;;;15.4;12.4;;;;;;;15.2;53.2;99300;;;;
2023/04/09 15:00:12;;;;;;;15.4;12.4;;;;;;;15.3;51.9;99300;;;;
2023/04/09 15:11:13;;;;;;;15.4;12.4;;;;;;;15.2;50.7;99300;;;;
2023/04/09 15:22:12;;;;;;;18.9;15.6;;;;;;;15.9;49.3;99300;;;;
2023/04/09 15:33:12;;;;;;;18.9;15.6;;;;;;;16;49.1;99300;;;;
2023/04/09 15:43:12;;;;;;;16.1;13.8;;;;;;;16.6;47.6;99300;;;;
2023/04/09 15:53:12;;;;;;;16.1;13.8;;;;;;;15.9;47.7;99290;;;;
2023/04/09 16:04:12;;;;;;;16.1;13.8;;;;;;;15;49.7;99300;;;;
2023/04/09 16:15:12;;;;;;;16.5;14;;;;;;;14.2;51.7;99300;;;;
2023/04/09 16:25:12;;;;;;;16.5;14;;;;;;;13.7;52.9;99310;;;;
2023/04/09 16:35:12;;;;;;;16.5;14;;;;;;;13.2;54.2;99310;;;;
2023/04/09 16:46:12;;;;;;;18.9;16.7;;;;;;;12.7;55.3;99310;;;;
2023/04/09 16:57:12;;;;;;;18.9;16.7;;;;;;;12.2;57.1;99310;;;;
2023/04/09 17:07:12;;;;;;;18.9;16.7;;;;;;;11.7;58;99330;;;;
2023/04/09 17:18:12;;;;;;;16.6;12.9;;;;;;;11.4;59.2;99330;;;;
2023/04/09 17:28:12;;;;;;;16.6;12.9;;;;;;;11;59.8;99340;;;;
2023/04/09 17:38:19;;;;;;;16.6;12.9;;;;;;;10.6;60.9;99350;;;;
2023/04/09 17:49:12;;;;;;;24.3;18.3;;;;;;;10.3;62;99360;;;;
2023/04/09 17:59:12;;;;;;;24.3;18.3;;;;;;;10;62.8;99370;;;;
2023/04/09 18:09:12;;;;;;;24.3;18.3;;;;;;;9.8;64.1;99380;;;;
2023/04/09 18:20:14;;;;;;;24.5;17.8;;;;;;;9.5;66.2;99390;;;;
2023/04/09 18:30:12;;;;;;;24.5;17.8;;;;;;;9.2;66.7;99400;;;;
2023/04/09 18:40:14;;;;;;;24.5;17.8;;;;;;;9;67.6;99400;;;;
2023/04/09 18:50:14;;;;;;;25.8;17.8;;;;;;;8.9;68.2;99410;;;;
2023/04/09 19:00:12;;;;;;;25.8;17.8;;;;;;;8.7;68.8;99420;;;;
2023/04/09 19:11:12;;;;;;;25.8;17.8;;;;;;;8.6;69.5;99420;;;;
2023/04/09 19:22:13;;;;;;;28.4;20.1;;;;;;;8.5;70;99430;;;;
2023/04/09 19:32:13;;;;;;;28.4;20.1;;;;;;;8.5;70.5;99430;;;;
2023/04/09 19:42:12;;;;;;;32.9;24;;;;;;;8.4;70.6;99430;;;;
2023/04/09 19:52:12;;;;;;;32.9;24;;;;;;;8.3;70.1;99440;;;;
2023/04/09 20:02:12;;;;;;;32.9;24;;;;;;;8.3;70.2;99440;;;;
2023/04/09 20:13:12;;;;;;;41.5;26.4;;;;;;;8.1;71.1;99450;;;;
2023/04/09 20:24:12;;;;;;;41.5;26.4;;;;;;;7.9;72.8;99440;;;;
2023/04/09 20:35:13;;;;;;;41.5;26.4;;;;;;;7.9;73.9;99440;;;;
2023/04/09 20:46:13;;;;;;;40.9;26.1;;;;;;;7.7;74;99440;;;;
2023/04/09 20:56:12;;;;;;;40.9;26.1;;;;;;;7.6;74.2;99450;;;;
2023/04/09 21:07:12;;;;;;;40.9;26.1;;;;;;;7.4;74.7;99450;;;;
2023/04/09 21:17:12;;;;;;;39.3;24.4;;;;;;;7.3;74.6;99440;;;;
2023/04/09 21:28:12;;;;;;;39.3;24.4;;;;;;;7.2;75.1;99450;;;;
2023/04/09 21:38:12;;;;;;;39.3;24.4;;;;;;;7.1;75.2;99450;;;;
2023/04/09 21:49:12;;;;;;;28.8;18.9;;;;;;;7;75.7;99460;;;;
2023/04/09 21:59:12;;;;;;;28.8;18.9;;;;;;;7;76.5;99460;;;;
2023/04/09 22:09:12;;;;;;;28.8;18.9;;;;;;;7.2;77.4;99470;;;;
2023/04/09 22:19:13;;;;;;;32.3;21.6;;;;;;;7.3;77.9;99470;;;;
2023/04/09 22:29:12;;;;;;;32.3;21.6;;;;;;;7.3;78.1;99470;;;;
2023/04/09 22:40:13;;;;;;;32.3;21.6;;;;;;;7.3;78.9;99470;;;;
2023/04/09 22:50:12;;;;;;;33.3;21.1;;;;;;;7.2;79;99460;;;;
2023/04/09 23:00:13;;;;;;;33.3;21.1;;;;;;;7.1;80.1;99470;;;;
2023/04/09 23:11:12;;;;;;;33.3;21.1;;;;;;;6.8;80.7;99470;;;;
2023/04/09 23:21:12;;;;;;;35;22.3;;;;;;;6.7;81.3;99460;;;;
2023/04/09 23:31:12;;;;;;;35;22.3;;;;;;;6.5;81.7;99470;;;;
2023/04/09 23:42:12;;;;;;;35.4;21.7;;;;;;;6.3;82.8;99460;;;;
2023/04/09 23:52:12;;;;;;;35.4;21.7;;;;;;;6.1;83.3;99460;;;;
